LFLN

Saint-Yan Airport

Saint-Yan, France
TAF LFLN 211700Z 2118/2203 33012KT CAVOK
Issued Valid From Valid To
Jun-21 @ 17:00 UTC
(an hour ago)
Jun-21 @ 18:00 UTC
(9 minutes ago)
Jun-22 @ 03:00 UTC
(in 9 hours)
Jun-21 @ 18:00 to Jun-22 @ 03:00
TAF LFLN 211700Z 2118/2203 33012KT CAVOK
Wind Visibility Clouds Conditions
330° at 12 knots 10,000+ meters
  • No significant clouds
TAF LFLN 211700Z 2118/2203 33012KT CAVOK
Issued Jun-21 @ 17:00 UTC
(an hour ago)
Valid From Jun-21 @ 18:00 UTC
(9 minutes ago)
Valid To Jun-22 @ 03:00 UTC
(in 9 hours)
Jun-21 @ 18:00 - Jun-22 @ 03:00
Wind Visibility
330° at 12 knots 10,000+ meters
Clouds
  • No significant clouds
Conditions